Time,TemperatureF,DewpointF,PressureIn,WindDirection,WindDirectionDegrees,WindSpeedMPH,WindSpeedGustMPH,Humidity,HourlyPrecipIn,Conditions,Clouds,dailyrainin,SolarRadiationWatts/m^2,SoftwareType,DateUTC
2013-06-11 00:02:00,66.0,56.0,-100.00,North,354,9.0,13.0,70,0.00,,,0.00,0.000000,,2013-06-11 06:02:00,
2013-06-11 00:12:00,66.0,56.0,-100.00,North,354,9.0,13.0,70,0.00,,,0.00,0.000000,,2013-06-11 06:12:00,
2013-06-11 00:32:00,65.0,56.0,-100.00,North,6,6.0,13.0,73,0.00,,,0.00,0.000000,,2013-06-11 06:32:00,
2013-06-11 00:42:00,65.0,56.0,-100.00,North,6,6.0,13.0,73,0.00,,,0.00,0.000000,,2013-06-11 06:42:00,
2013-06-11 00:52:00,65.0,56.0,-100.00,North,6,6.0,13.0,73,0.00,,,0.00,0.000000,,2013-06-11 06:52:00,
2013-06-11 01:02:00,65.0,56.0,-100.00,North,6,6.0,13.0,73,0.00,,,0.00,0.000000,,2013-06-11 07:02:00,
2013-06-11 01:12:00,65.0,56.0,-100.00,North,6,6.0,13.0,73,0.00,,,0.00,0.000000,,2013-06-11 07:12:00,
2013-06-11 01:32:00,65.0,56.0,-100.00,NNE,20,8.0,16.0,73,0.00,,,0.00,0.000000,,2013-06-11 07:32:00,
2013-06-11 01:42:00,65.0,56.0,-100.00,NNE,20,8.0,16.0,73,0.00,,,0.00,0.000000,,2013-06-11 07:42:00,
2013-06-11 01:52:00,65.0,56.0,-100.00,NNE,20,8.0,16.0,73,0.00,,,0.00,0.000000,,2013-06-11 07:52:00,
2013-06-11 02:02:00,65.0,56.0,-100.00,NNE,20,8.0,16.0,73,0.00,,,0.00,0.000000,,2013-06-11 08:02:00,
2013-06-11 02:12:00,65.0,56.0,-100.00,NNE,20,8.0,16.0,73,0.00,,,0.00,0.000000,,2013-06-11 08:12:00,
2013-06-11 02:32:00,64.0,57.0,-100.00,North,6,15.0,25.0,77,0.00,,,0.00,0.000000,,2013-06-11 08:32:00,
2013-06-11 02:42:00,64.0,57.0,-100.00,North,6,15.0,25.0,77,0.00,,,0.00,0.000000,,2013-06-11 08:42:00,
2013-06-11 02:52:00,64.0,57.0,-100.00,North,6,15.0,25.0,77,0.00,,,0.00,0.000000,,2013-06-11 08:52:00,
2013-06-11 03:02:00,64.0,57.0,-100.00,North,6,15.0,25.0,77,0.00,,,0.00,0.000000,,2013-06-11 09:02:00,
2013-06-11 03:12:00,64.0,57.0,-100.00,North,6,15.0,25.0,77,0.00,,,0.00,0.000000,,2013-06-11 09:12:00,
2013-06-11 03:33:00,61.0,55.0,-100.00,NNE,16,16.0,29.0,81,0.00,,,0.00,0.000000,,2013-06-11 09:33:00,
2013-06-11 03:43:00,61.0,55.0,-100.00,NNE,16,16.0,29.0,81,0.00,,,0.00,0.000000,,2013-06-11 09:43:00,
2013-06-11 03:53:00,61.0,55.0,-100.00,NNE,16,16.0,29.0,81,0.00,,,0.00,0.000000,,2013-06-11 09:53:00,
2013-06-11 04:03:00,61.0,55.0,-100.00,NNE,16,16.0,29.0,81,0.00,,,0.00,0.000000,,2013-06-11 10:03:00,
2013-06-11 04:12:00,61.0,55.0,-100.00,NNE,16,16.0,29.0,81,0.00,,,0.00,0.000000,,2013-06-11 10:12:00,
2013-06-11 04:33:00,60.0,55.0,-100.00,North,5,14.0,23.0,84,0.00,,,0.00,0.000000,,2013-06-11 10:33:00,
2013-06-11 04:43:00,60.0,55.0,-100.00,North,5,14.0,23.0,84,0.00,,,0.00,0.000000,,2013-06-11 10:43:00,
2013-06-11 04:52:00,60.0,55.0,-100.00,North,5,14.0,23.0,84,0.00,,,0.00,0.000000,,2013-06-11 10:52:00,
2013-06-11 05:02:00,60.0,55.0,-100.00,North,5,14.0,23.0,84,0.00,,,0.00,0.000000,,2013-06-11 11:02:00,
2013-06-11 05:12:00,60.0,55.0,-100.00,North,5,14.0,23.0,84,0.00,,,0.00,0.000000,,2013-06-11 11:12:00,
2013-06-11 05:32:00,59.0,53.0,-100.00,North,1,13.0,24.0,81,0.00,,,-99.99,0.000000,,2013-06-11 11:32:00,
2013-06-11 05:42:00,59.0,53.0,-100.00,North,1,13.0,24.0,81,0.00,,,-99.99,0.000000,,2013-06-11 11:42:00,
2013-06-11 05:52:00,59.0,53.0,-100.00,North,1,13.0,24.0,81,0.00,,,-99.99,0.000000,,2013-06-11 11:52:00,
2013-06-11 06:02:00,59.0,53.0,-100.00,North,1,13.0,24.0,81,0.00,,,-99.99,0.000000,,2013-06-11 12:02:00,
2013-06-11 06:12:00,59.0,53.0,-100.00,North,1,13.0,24.0,81,0.00,,,-99.99,0.000000,,2013-06-11 12:12:00,
2013-06-11 06:32:00,61.0,53.0,-100.00,North,5,9.0,18.0,76,0.00,,,-99.99,26.000000,,2013-06-11 12:32:00,
2013-06-11 06:42:00,61.0,53.0,-100.00,North,5,9.0,18.0,76,0.00,,,-99.99,26.000000,,2013-06-11 12:42:00,
2013-06-11 06:52:00,61.0,53.0,-100.00,North,5,9.0,18.0,76,0.00,,,-99.99,26.000000,,2013-06-11 12:52:00,
2013-06-11 07:02:00,61.0,53.0,-100.00,North,5,9.0,18.0,76,0.00,,,-99.99,26.000000,,2013-06-11 13:02:00,
2013-06-11 07:12:00,61.0,53.0,-100.00,North,5,9.0,18.0,76,0.00,,,-99.99,26.000000,,2013-06-11 13:12:00,
2013-06-11 07:32:00,65.0,53.0,-100.00,North,357,14.0,22.0,65,0.00,,,-99.99,159.000000,,2013-06-11 13:32:00,
2013-06-11 07:42:00,65.0,53.0,-100.00,North,357,14.0,22.0,65,0.00,,,-99.99,159.000000,,2013-06-11 13:42:00,
2013-06-11 07:52:00,65.0,53.0,-100.00,North,357,14.0,22.0,65,0.00,,,-99.99,159.000000,,2013-06-11 13:52:00,
2013-06-11 08:02:00,65.0,53.0,-100.00,North,357,14.0,22.0,65,0.00,,,-99.99,159.000000,,2013-06-11 14:02:00,
2013-06-11 08:12:00,65.0,53.0,-100.00,North,357,14.0,22.0,65,0.00,,,-99.99,159.000000,,2013-06-11 14:12:00,
2013-06-11 08:32:00,67.0,54.0,-100.00,NNE,22,13.0,27.0,63,0.00,,,0.00,349.000000,,2013-06-11 14:32:00,
2013-06-11 08:42:00,67.0,54.0,-100.00,NNE,22,13.0,27.0,63,0.00,,,0.00,349.000000,,2013-06-11 14:42:00,
2013-06-11 08:53:00,67.0,54.0,-100.00,NNE,22,13.0,27.0,63,0.00,,,0.00,349.000000,,2013-06-11 14:53:00,
2013-06-11 09:02:00,67.0,54.0,-100.00,NNE,22,13.0,27.0,63,0.00,,,0.00,349.000000,,2013-06-11 15:02:00,
2013-06-11 09:12:00,67.0,54.0,-100.00,NNE,22,13.0,27.0,63,0.00,,,0.00,349.000000,,2013-06-11 15:12:00,
2013-06-11 09:33:00,69.0,57.0,-100.00,NNE,21,13.0,19.0,65,0.00,,,0.00,554.000000,,2013-06-11 15:33:00,
2013-06-11 09:43:00,69.0,57.0,-100.00,NNE,21,13.0,19.0,65,0.00,,,0.00,554.000000,,2013-06-11 15:43:00,
2013-06-11 09:53:00,69.0,57.0,-100.00,NNE,21,13.0,19.0,65,0.00,,,0.00,554.000000,,2013-06-11 15:53:00,
2013-06-11 10:03:00,69.0,57.0,-100.00,NNE,21,13.0,19.0,65,0.00,,,0.00,554.000000,,2013-06-11 16:03:00,
2013-06-11 10:12:00,69.0,57.0,-100.00,NNE,21,13.0,19.0,65,0.00,,,0.00,554.000000,,2013-06-11 16:12:00,
2013-06-11 10:33:00,70.0,57.0,-100.00,NE,34,13.0,22.0,63,0.00,,,0.00,734.000000,,2013-06-11 16:33:00,
2013-06-11 10:42:00,70.0,57.0,-100.00,NE,34,13.0,22.0,63,0.00,,,0.00,734.000000,,2013-06-11 16:42:00,
2013-06-11 10:52:00,70.0,57.0,-100.00,NE,34,13.0,22.0,63,0.00,,,0.00,734.000000,,2013-06-11 16:52:00,
2013-06-11 11:02:00,70.0,57.0,-100.00,NE,34,13.0,22.0,63,0.00,,,0.00,734.000000,,2013-06-11 17:02:00,
2013-06-11 11:12:00,70.0,57.0,-100.00,NE,34,13.0,22.0,63,0.00,,,0.00,734.000000,,2013-06-11 17:12:00,
2013-06-11 11:32:00,71.0,58.0,-100.00,NNE,28,14.0,22.0,64,0.00,,,0.00,907.000000,,2013-06-11 17:32:00,
2013-06-11 11:43:00,71.0,58.0,-100.00,NNE,28,14.0,22.0,64,0.00,,,0.00,907.000000,,2013-06-11 17:43:00,
2013-06-11 11:52:00,71.0,58.0,-100.00,NNE,28,14.0,22.0,64,0.00,,,0.00,907.000000,,2013-06-11 17:52:00,
2013-06-11 12:02:00,71.0,58.0,-100.00,NNE,28,14.0,22.0,64,0.00,,,0.00,907.000000,,2013-06-11 18:02:00,
2013-06-11 12:12:00,71.0,58.0,-100.00,NNE,28,14.0,22.0,64,0.00,,,0.00,907.000000,,2013-06-11 18:12:00,
2013-06-11 12:33:00,71.0,59.0,-100.00,NE,40,13.0,23.0,65,0.00,,,0.00,919.000000,,2013-06-11 18:33:00,
2013-06-11 12:43:00,71.0,59.0,-100.00,NE,40,13.0,23.0,65,0.00,,,0.00,919.000000,,2013-06-11 18:43:00,
2013-06-11 12:52:00,71.0,59.0,-100.00,NE,40,13.0,23.0,65,0.00,,,0.00,919.000000,,2013-06-11 18:52:00,
2013-06-11 13:02:00,71.0,59.0,-100.00,NE,40,13.0,23.0,65,0.00,,,0.00,919.000000,,2013-06-11 19:02:00,
2013-06-11 13:12:00,71.0,59.0,-100.00,NE,40,13.0,23.0,65,0.00,,,0.00,919.000000,,2013-06-11 19:12:00,
2013-06-11 13:33:00,73.0,60.0,-100.00,NNE,26,14.0,23.0,64,0.00,,,0.00,732.000000,,2013-06-11 19:33:00,
2013-06-11 13:42:00,73.0,60.0,-100.00,NNE,26,14.0,23.0,64,0.00,,,0.00,732.000000,,2013-06-11 19:42:00,
2013-06-11 13:53:00,73.0,60.0,-100.00,NNE,26,14.0,23.0,64,0.00,,,0.00,732.000000,,2013-06-11 19:53:00,
2013-06-11 14:03:00,73.0,60.0,-100.00,NNE,26,14.0,23.0,64,0.00,,,0.00,732.000000,,2013-06-11 20:03:00,
2013-06-11 14:12:00,73.0,60.0,-100.00,NNE,26,14.0,23.0,64,0.00,,,0.00,732.000000,,2013-06-11 20:12:00,
2013-06-11 14:32:00,72.0,60.0,-100.00,NNE,16,13.0,20.0,67,0.00,,,0.00,585.000000,,2013-06-11 20:32:00,
2013-06-11 14:42:00,72.0,60.0,-100.00,NNE,16,13.0,20.0,67,0.00,,,0.00,585.000000,,2013-06-11 20:42:00,
2013-06-11 14:52:00,72.0,60.0,-100.00,NNE,16,13.0,20.0,67,0.00,,,0.00,585.000000,,2013-06-11 20:52:00,
2013-06-11 15:02:00,72.0,60.0,-100.00,NNE,16,13.0,20.0,67,0.00,,,0.00,585.000000,,2013-06-11 21:02:00,
2013-06-11 15:12:00,72.0,60.0,-100.00,NNE,16,13.0,20.0,67,0.00,,,0.00,585.000000,,2013-06-11 21:12:00,
2013-06-11 15:33:00,72.0,61.0,-100.00,NNE,16,15.0,24.0,69,0.00,,,0.00,763.000000,,2013-06-11 21:33:00,
2013-06-11 15:42:00,72.0,61.0,-100.00,NNE,16,15.0,24.0,69,0.00,,,0.00,763.000000,,2013-06-11 21:42:00,
2013-06-11 15:53:00,72.0,61.0,-100.00,NNE,16,15.0,24.0,69,0.00,,,0.00,763.000000,,2013-06-11 21:53:00,
2013-06-11 16:03:00,72.0,61.0,-100.00,NNE,16,15.0,24.0,69,0.00,,,0.00,763.000000,,2013-06-11 22:03:00,
2013-06-11 16:12:00,72.0,61.0,-100.00,NNE,16,15.0,24.0,69,0.00,,,0.00,763.000000,,2013-06-11 22:12:00,
2013-06-11 16:33:00,73.0,62.0,-100.00,NNE,17,15.0,23.0,68,0.00,,,0.00,603.000000,,2013-06-11 22:33:00,
2013-06-11 16:42:00,73.0,62.0,-100.00,NNE,17,15.0,23.0,68,0.00,,,0.00,603.000000,,2013-06-11 22:42:00,
2013-06-11 16:52:00,73.0,62.0,-100.00,NNE,17,15.0,23.0,68,0.00,,,0.00,603.000000,,2013-06-11 22:52:00,
2013-06-11 17:02:00,73.0,62.0,-100.00,NNE,17,15.0,23.0,68,0.00,,,0.00,603.000000,,2013-06-11 23:02:00,
2013-06-11 17:12:00,73.0,62.0,-100.00,NNE,17,15.0,23.0,68,0.00,,,0.00,603.000000,,2013-06-11 23:12:00,
2013-06-11 17:32:00,71.0,62.0,-100.00,NNE,28,14.0,22.0,73,0.00,,,0.00,342.000000,,2013-06-11 23:32:00,
2013-06-11 17:42:00,71.0,62.0,-100.00,NNE,28,14.0,22.0,73,0.00,,,0.00,342.000000,,2013-06-11 23:42:00,
2013-06-11 17:52:00,71.0,62.0,-100.00,NNE,28,14.0,22.0,73,0.00,,,0.00,342.000000,,2013-06-11 23:52:00,
2013-06-11 18:02:00,71.0,62.0,-100.00,NNE,28,14.0,22.0,73,0.00,,,0.00,342.000000,,2013-06-12 00:02:00,
2013-06-11 18:12:00,71.0,62.0,-100.00,NNE,28,14.0,22.0,73,0.00,,,0.00,342.000000,,2013-06-12 00:12:00,
2013-06-11 19:32:00,68.0,62.0,-100.00,North,2,13.0,22.0,81,-99.99,,,0.00,86.000000,,2013-06-12 01:32:00,
2013-06-11 19:42:00,68.0,62.0,-100.00,North,2,13.0,22.0,81,-99.99,,,0.00,86.000000,,2013-06-12 01:42:00,
2013-06-11 19:52:00,68.0,62.0,-100.00,North,2,13.0,22.0,81,-99.99,,,0.00,86.000000,,2013-06-12 01:52:00,
2013-06-11 20:02:00,68.0,62.0,-100.00,North,2,13.0,22.0,81,-99.99,,,0.00,86.000000,,2013-06-12 02:02:00,
2013-06-11 20:12:00,68.0,62.0,-100.00,North,2,13.0,22.0,81,-99.99,,,0.00,86.000000,,2013-06-12 02:12:00,
2013-06-11 20:32:00,66.0,60.0,-100.00,North,353,14.0,23.0,80,0.00,,,0.00,15.000000,,2013-06-12 02:32:00,
2013-06-11 20:42:00,66.0,60.0,-100.00,North,353,14.0,23.0,80,0.00,,,0.00,15.000000,,2013-06-12 02:42:00,
2013-06-11 20:52:00,66.0,60.0,-100.00,North,353,14.0,23.0,80,0.00,,,0.00,15.000000,,2013-06-12 02:52:00,
2013-06-11 21:02:00,66.0,60.0,-100.00,North,353,14.0,23.0,80,0.00,,,0.00,15.000000,,2013-06-12 03:02:00,
2013-06-11 21:12:00,66.0,60.0,-100.00,North,353,14.0,23.0,80,0.00,,,0.00,15.000000,,2013-06-12 03:12:00,
2013-06-11 21:13:00,66.0,60.0,-100.00,NNE,15,10.0,21.0,81,0.00,,,0.00,0.000000,,2013-06-12 03:13:00,
2013-06-11 21:33:00,66.0,60.0,-100.00,NNE,15,10.0,21.0,81,0.00,,,0.00,0.000000,,2013-06-12 03:33:00,
2013-06-11 21:43:00,66.0,60.0,-100.00,NNE,15,10.0,21.0,81,0.00,,,0.00,0.000000,,2013-06-12 03:43:00,
2013-06-11 21:53:00,66.0,60.0,-100.00,NNE,15,10.0,21.0,81,0.00,,,0.00,0.000000,,2013-06-12 03:53:00,
2013-06-11 22:03:00,66.0,60.0,-100.00,NNE,15,10.0,21.0,81,0.00,,,0.00,0.000000,,2013-06-12 04:03:00,
2013-06-11 22:34:00,63.0,53.0,-100.00,NNW,344,19.0,31.0,71,0.00,,,0.00,0.000000,,2013-06-12 04:34:00,
2013-06-11 22:42:00,63.0,53.0,-100.00,NNW,344,19.0,31.0,71,0.00,,,0.00,0.000000,,2013-06-12 04:42:00,
2013-06-11 22:53:00,63.0,53.0,-100.00,NNW,344,19.0,31.0,71,0.00,,,0.00,0.000000,,2013-06-12 04:53:00,
2013-06-11 23:03:00,63.0,53.0,-100.00,NNW,344,19.0,31.0,71,0.00,,,0.00,0.000000,,2013-06-12 05:03:00,
2013-06-11 23:12:00,63.0,53.0,-100.00,NNW,344,19.0,31.0,71,0.00,,,0.00,0.000000,,2013-06-12 05:12:00,
2013-06-11 23:32:00,55.0,54.0,-100.00,WNW,301,6.0,18.0,95,0.41,,,0.41,0.000000,,2013-06-12 05:32:00,
2013-06-11 23:42:00,55.0,54.0,-100.00,WNW,301,6.0,18.0,95,0.41,,,0.41,0.000000,,2013-06-12 05:42:00,
2013-06-11 23:52:00,55.0,54.0,-100.00,WNW,301,6.0,18.0,95,0.41,,,0.41,0.000000,,2013-06-12 05:52:00,